createdAt,value
2022-08-20T00:02:28.120Z,18.50
2022-08-20T00:04:56.211Z,17.70
2022-08-20T00:07:24.293Z,19.13
2022-08-20T00:09:52.402Z,18.60
2022-08-20T00:12:20.570Z,18.50
2022-08-20T00:14:50.028Z,17.43
2022-08-20T00:17:18.231Z,17.10
2022-08-20T00:19:46.562Z,17.70
2022-08-20T00:22:14.676Z,18.40
2022-08-20T00:24:43.109Z,18.67
2022-08-20T00:27:11.253Z,18.07
2022-08-20T00:29:39.495Z,17.60
2022-08-20T00:32:09.120Z,18.50
2022-08-20T00:34:37.298Z,17.40
2022-08-20T00:37:05.804Z,18.17
2022-08-20T00:39:33.969Z,18.70
2022-08-20T00:42:03.429Z,18.87
2022-08-20T00:44:31.882Z,16.80
2022-08-20T00:47:00.531Z,18.00
2022-08-20T00:49:32.705Z,17.37
2022-08-20T00:52:07.495Z,16.37
2022-08-20T00:54:40.814Z,15.73
2022-08-20T00:57:13.531Z,15.27
2022-08-20T00:59:43.855Z,15.37
2022-08-20T01:02:17.633Z,16.73
2022-08-20T01:04:49.939Z,15.80
2022-08-20T01:07:20.407Z,15.67
2022-08-20T01:09:58.881Z,14.43
2022-08-20T01:12:30.789Z,14.17
2022-08-20T01:15:02.028Z,14.30
2022-08-20T01:17:35.010Z,14.00
2022-08-20T01:20:12.103Z,14.83
2022-08-20T01:23:04.401Z,13.80
2022-08-20T01:25:47.435Z,13.03
2022-08-20T01:28:19.255Z,13.97
2022-08-20T01:30:47.690Z,13.30
2022-08-20T01:33:15.913Z,14.20
2022-08-20T01:35:44.509Z,13.23
2022-08-20T01:38:13.623Z,13.00
2022-08-20T01:41:28.330Z,13.70
2022-08-20T01:43:58.839Z,12.73
2022-08-20T01:46:34.981Z,12.90
2022-08-20T01:49:13.489Z,13.63
2022-08-20T01:51:44.170Z,14.10
2022-08-20T01:54:13.220Z,13.33
2022-08-20T01:56:56.673Z,12.60
2022-08-20T01:59:25.506Z,13.27
2022-08-20T02:01:54.513Z,13.00
2022-08-20T02:04:23.302Z,13.03
2022-08-20T02:06:57.709Z,13.77
2022-08-20T02:09:28.636Z,12.33
2022-08-20T02:11:59.058Z,13.73
2022-08-20T02:14:28.602Z,13.43
2022-08-20T02:16:58.341Z,12.93
2022-08-20T02:19:32.803Z,13.37
2022-08-20T02:22:07.353Z,12.33
2022-08-20T02:24:35.508Z,13.37
2022-08-20T02:27:05.204Z,12.93
2022-08-20T02:29:33.478Z,11.80
2022-08-20T02:32:32.125Z,11.50
2022-08-20T02:34:50.622Z,12.53
2022-08-20T02:37:19.185Z,11.60
2022-08-20T02:39:47.982Z,12.70
2022-08-20T02:42:18.144Z,13.73
2022-08-20T02:44:46.423Z,13.30
2022-08-20T02:47:14.503Z,12.97
2022-08-20T02:49:42.686Z,12.83
2022-08-20T02:52:10.994Z,13.80
2022-08-20T02:54:39.150Z,13.40
2022-08-20T02:57:13.378Z,13.83
2022-08-20T02:59:43.126Z,13.40
2022-08-20T03:02:12.017Z,12.97
2022-08-20T03:04:40.742Z,14.27
2022-08-20T03:07:10.383Z,14.00
2022-08-20T03:09:39.769Z,12.67
2022-08-20T03:12:08.540Z,14.83
2022-08-20T03:14:37.357Z,13.77
2022-08-20T03:17:06.924Z,13.83
2022-08-20T03:19:35.083Z,13.60
2022-08-20T03:22:03.297Z,13.43
2022-08-20T03:24:31.483Z,13.60
2022-08-20T03:26:59.712Z,13.47
2022-08-20T03:29:27.793Z,14.10
2022-08-20T03:31:55.907Z,13.13
2022-08-20T03:34:25.376Z,13.37
2022-08-20T03:36:53.509Z,13.17
2022-08-20T03:39:21.741Z,13.63
2022-08-20T03:41:49.894Z,12.80
2022-08-20T03:44:18.569Z,12.20
2022-08-20T03:46:46.731Z,11.87
2022-08-20T03:49:14.879Z,11.70
2022-08-20T03:51:57.906Z,11.87
2022-08-20T03:54:30.214Z,12.07
2022-08-20T03:57:02.214Z,11.10
2022-08-20T03:59:32.968Z,11.07
2022-08-20T04:02:01.641Z,10.87
2022-08-20T04:04:29.867Z,10.43
2022-08-20T04:06:59.468Z,10.07
2022-08-20T04:09:27.604Z,10.20
2022-08-20T04:11:58.720Z,10.20
2022-08-20T04:14:26.857Z,10.97
2022-08-20T04:16:57.429Z,11.27
2022-08-20T04:19:25.519Z,10.20
2022-08-20T04:21:53.698Z,12.43
2022-08-20T04:24:31.900Z,8.70
2022-08-20T04:27:02.604Z,8.37
2022-08-20T04:29:32.400Z,7.77
2022-08-20T04:32:05.617Z,7.20
2022-08-20T04:34:35.214Z,7.10
2022-08-20T04:37:03.599Z,7.10
2022-08-20T04:39:33.627Z,7.90
2022-08-20T04:42:01.790Z,7.53
2022-08-20T04:44:29.969Z,8.27
2022-08-20T04:47:02.005Z,7.90
2022-08-20T04:49:31.182Z,6.70
2022-08-20T04:51:59.407Z,7.27
2022-08-20T04:54:27.537Z,6.50
2022-08-20T04:56:56.936Z,7.70
2022-08-20T04:59:25.107Z,6.33
2022-08-20T05:01:53.174Z,6.73
2022-08-20T05:04:21.376Z,7.50
2022-08-20T05:06:50.313Z,6.63
2022-08-20T05:09:18.442Z,6.37
2022-08-20T05:11:46.596Z,6.33
2022-08-20T05:14:16.155Z,6.60
2022-08-20T05:16:44.315Z,7.07
2022-08-20T05:19:14.610Z,7.80
2022-08-20T05:21:42.801Z,6.77
2022-08-20T05:24:11.717Z,7.23
2022-08-20T05:26:40.170Z,6.93
2022-08-20T05:29:08.307Z,6.27
2022-08-20T05:31:38.473Z,6.00
2022-08-20T05:34:11.142Z,7.17
2022-08-20T05:36:43.717Z,9.27
2022-08-20T05:39:13.350Z,7.10
2022-08-20T05:41:42.135Z,7.17
2022-08-20T05:44:13.705Z,7.00
2022-08-20T05:46:45.968Z,6.57
2022-08-20T05:49:19.555Z,6.60
2022-08-20T05:51:48.141Z,6.77
2022-08-20T05:54:16.827Z,6.20
2022-08-20T05:56:45.149Z,6.00
2022-08-20T05:59:14.055Z,6.23
2022-08-20T06:01:44.327Z,5.50
2022-08-20T06:04:28.562Z,6.13
2022-08-20T06:07:02.726Z,6.47
2022-08-20T06:09:32.851Z,5.97
2022-08-20T06:12:04.104Z,6.30
2022-08-20T06:14:33.192Z,6.80
2022-08-20T06:17:09.932Z,5.73
2022-08-20T06:19:39.869Z,5.57
2022-08-20T06:22:19.571Z,5.33
2022-08-20T06:24:54.957Z,5.63
2022-08-20T06:27:24.227Z,5.20
2022-08-20T06:29:52.442Z,4.83
2022-08-20T06:32:32.225Z,5.53
2022-08-20T06:35:03.227Z,5.70
2022-08-20T06:37:33.705Z,5.30
2022-08-20T06:40:06.574Z,5.43
2022-08-20T06:42:34.893Z,5.83
2022-08-20T06:45:05.008Z,4.93
2022-08-20T06:47:36.045Z,4.80
2022-08-20T06:50:04.599Z,4.70
2022-08-20T06:52:52.175Z,4.53
2022-08-20T06:55:21.986Z,4.13
2022-08-20T06:57:59.045Z,4.20
2022-08-20T07:00:27.952Z,3.80
2022-08-20T07:02:59.816Z,3.80
2022-08-20T07:05:28.066Z,3.90
2022-08-20T07:07:56.307Z,3.60
2022-08-20T07:10:25.836Z,3.33
2022-08-20T07:12:54.079Z,3.20
2022-08-20T07:15:25.733Z,3.17
2022-08-20T07:18:01.140Z,3.10
2022-08-20T07:20:31.689Z,3.23
2022-08-20T07:23:00.576Z,2.87
2022-08-20T07:25:31.781Z,3.27
2022-08-20T07:28:02.651Z,2.80
2022-08-20T07:30:56.436Z,2.77
2022-08-20T07:33:28.584Z,3.37
2022-08-20T07:35:58.437Z,2.80
2022-08-20T07:38:30.899Z,2.40
2022-08-20T07:41:02.070Z,2.63
2022-08-20T07:43:30.580Z,2.13
2022-08-20T07:46:02.813Z,2.57
2022-08-20T07:48:33.059Z,2.80
2022-08-20T07:51:04.741Z,2.03
2022-08-20T07:53:35.845Z,2.00
2022-08-20T07:56:10.139Z,1.63
2022-08-20T07:58:43.980Z,1.63
2022-08-20T08:01:12.402Z,1.47
2022-08-20T08:03:49.802Z,1.40
2022-08-20T08:06:30.462Z,1.70
2022-08-20T08:09:04.604Z,1.50
2022-08-20T08:11:34.948Z,1.40
2022-08-20T08:14:06.829Z,1.43
2022-08-20T08:16:35.818Z,1.30
2022-08-20T08:19:08.202Z,1.30
2022-08-20T08:21:36.641Z,1.67
2022-08-20T08:24:05.658Z,1.60
2022-08-20T08:26:33.915Z,1.37
2022-08-20T08:29:02.432Z,1.60
2022-08-20T08:31:30.535Z,1.50
2022-08-20T08:33:58.655Z,1.50
2022-08-20T08:36:28.142Z,1.50
2022-08-20T08:38:56.643Z,1.50
2022-08-20T08:41:31.908Z,1.37
2022-08-20T08:44:08.349Z,1.53
2022-08-20T08:46:42.252Z,1.27
2022-08-20T08:49:14.657Z,1.47
2022-08-20T08:51:47.971Z,1.37
2022-08-20T08:54:17.949Z,1.13
2022-08-20T08:56:49.784Z,1.13
2022-08-20T08:59:20.147Z,1.47
2022-08-20T09:01:56.904Z,1.20
2022-08-20T09:04:35.668Z,1.30
2022-08-20T09:07:10.878Z,1.03
2022-08-20T09:09:43.095Z,1.30
2022-08-20T09:12:14.940Z,1.17
2022-08-20T09:14:43.115Z,0.90
2022-08-20T09:17:11.261Z,0.90
2022-08-20T09:19:39.460Z,1.00
2022-08-20T09:22:14.536Z,1.20
2022-08-20T09:24:43.325Z,1.00
2022-08-20T09:27:12.241Z,1.30
2022-08-20T09:29:41.077Z,1.40
2022-08-20T09:32:13.596Z,1.05
2022-08-20T09:34:45.544Z,1.20
2022-08-20T09:37:16.087Z,1.60
2022-08-20T09:39:44.336Z,1.30
2022-08-20T09:42:16.862Z,1.10
2022-08-20T09:44:45.683Z,1.20
2022-08-20T09:47:14.062Z,1.10
2022-08-20T09:49:42.273Z,1.20
2022-08-20T09:52:18.104Z,1.05
2022-08-20T09:54:46.803Z,1.38
2022-08-20T09:57:16.533Z,1.30
2022-08-20T09:59:46.306Z,1.05
2022-08-20T10:02:14.359Z,1.15
2022-08-20T10:04:42.487Z,1.00
2022-08-20T10:07:10.780Z,1.17
2022-08-20T10:09:40.252Z,1.02
2022-08-20T10:12:09.241Z,1.23
2022-08-20T10:14:37.311Z,1.00
2022-08-20T10:17:08.546Z,1.48
2022-08-20T10:19:36.754Z,1.05
2022-08-20T10:22:05.749Z,1.10
2022-08-20T10:24:33.989Z,1.30
2022-08-20T10:27:04.050Z,1.10
2022-08-20T10:29:33.121Z,1.05
2022-08-20T10:32:12.271Z,1.10
2022-08-20T10:34:41.253Z,1.13
2022-08-20T10:37:11.052Z,1.30
2022-08-20T10:39:39.359Z,1.38
2022-08-20T10:42:09.030Z,1.42
2022-08-20T10:44:37.166Z,1.33
2022-08-20T10:47:21.199Z,1.10
2022-08-20T10:49:50.833Z,1.20
2022-08-20T10:52:19.220Z,1.23
2022-08-20T10:54:47.661Z,1.50
2022-08-20T10:57:20.669Z,1.15
2022-08-20T10:59:52.293Z,1.27
2022-08-20T11:02:21.734Z,1.35
2022-08-20T11:04:50.930Z,1.20
2022-08-20T11:08:08.496Z,1.40
2022-08-20T11:10:18.000Z,1.23
2022-08-20T11:12:47.464Z,1.02
2022-08-20T11:15:16.830Z,1.33
2022-08-20T11:17:45.816Z,1.10
2022-08-20T11:20:19.115Z,1.40
2022-08-20T11:22:47.796Z,1.13
2022-08-20T11:25:16.150Z,1.05
2022-08-20T11:27:49.342Z,1.38
2022-08-20T11:30:21.027Z,1.30
2022-08-20T11:32:49.599Z,1.05
2022-08-20T11:35:41.695Z,1.42
2022-08-20T11:38:06.928Z,1.33
2022-08-20T11:40:35.229Z,1.38
2022-08-20T11:43:20.040Z,1.52
2022-08-20T11:45:51.939Z,1.38
2022-08-20T11:48:20.308Z,1.48
2022-08-20T11:50:49.453Z,1.45
2022-08-20T11:53:17.764Z,1.20
2022-08-20T11:55:46.301Z,1.30
2022-08-20T11:58:17.529Z,1.23
2022-08-20T12:00:45.765Z,1.65
2022-08-20T12:03:14.113Z,1.58
2022-08-20T12:05:45.395Z,1.38
2022-08-20T12:08:26.759Z,1.40
2022-08-20T12:10:57.674Z,1.38
2022-08-20T12:13:35.987Z,1.55
2022-08-20T12:16:16.012Z,1.40
2022-08-20T12:18:44.105Z,1.52
2022-08-20T12:21:12.464Z,1.45
2022-08-20T12:23:40.587Z,1.67
2022-08-20T12:26:08.811Z,1.60
2022-08-20T12:28:38.258Z,2.00
2022-08-20T12:31:06.759Z,1.80
2022-08-20T12:33:34.914Z,1.67
2022-08-20T12:36:03.434Z,1.55
2022-08-20T12:38:31.585Z,1.38
2022-08-20T12:40:59.687Z,1.52
2022-08-20T12:43:27.837Z,1.85
2022-08-20T12:45:57.298Z,1.63
2022-08-20T12:48:25.598Z,1.42
2022-08-20T12:50:53.820Z,1.75
2022-08-20T12:53:21.984Z,1.95
2022-08-20T12:55:50.180Z,1.67
2022-08-20T12:58:19.387Z,2.25
2022-08-20T13:00:51.093Z,2.58
2022-08-20T13:03:21.757Z,1.77
2022-08-20T13:05:50.840Z,1.63
2022-08-20T13:08:19.466Z,1.73
2022-08-20T13:10:48.357Z,1.77
2022-08-20T13:13:20.168Z,1.70
2022-08-20T13:15:50.948Z,1.60
2022-08-20T13:18:21.409Z,1.83
2022-08-20T13:20:50.339Z,1.65
2022-08-20T13:23:18.723Z,1.75
2022-08-20T13:25:46.812Z,1.50
2022-08-20T13:28:14.952Z,1.40
2022-08-20T13:30:43.063Z,1.30
2022-08-20T13:33:11.576Z,1.27
2022-08-20T13:35:41.084Z,1.65
2022-08-20T13:38:09.214Z,1.73
2022-08-20T13:40:37.411Z,1.70
2022-08-20T13:43:07.403Z,1.40
2022-08-20T13:45:36.373Z,1.55
2022-08-20T13:48:06.922Z,1.60
2022-08-20T13:50:40.013Z,1.60
2022-08-20T13:53:08.118Z,1.83
2022-08-20T13:55:39.086Z,1.70
2022-08-20T13:58:08.642Z,1.80
2022-08-20T14:00:37.588Z,1.83
2022-08-20T14:03:07.623Z,1.50
2022-08-20T14:05:36.355Z,1.48
2022-08-20T14:08:12.357Z,1.40
2022-08-20T14:10:42.547Z,1.70
2022-08-20T14:13:15.436Z,1.38
2022-08-20T14:15:44.663Z,1.60
2022-08-20T14:18:14.343Z,1.55
2022-08-20T14:20:45.308Z,1.35
2022-08-20T14:23:15.389Z,1.40
2022-08-20T14:25:47.213Z,1.40
2022-08-20T14:28:18.883Z,1.52
2022-08-20T14:30:53.164Z,1.30
2022-08-20T14:33:23.117Z,1.60
2022-08-20T14:35:51.403Z,1.40
2022-08-20T14:38:20.908Z,1.30
2022-08-20T14:40:50.439Z,1.42
2022-08-20T14:43:19.045Z,1.70
2022-08-20T14:45:47.170Z,1.63
2022-08-20T14:48:15.892Z,1.77
2022-08-20T14:50:44.234Z,1.30
2022-08-20T14:53:12.302Z,1.60
2022-08-20T14:55:41.892Z,1.67
2022-08-20T14:58:12.371Z,1.30
2022-08-20T15:00:41.902Z,1.67
2022-08-20T15:03:10.379Z,1.48
2022-08-20T15:05:39.215Z,1.70
2022-08-20T15:08:08.977Z,1.60
2022-08-20T15:10:40.811Z,1.90
2022-08-20T15:13:09.351Z,1.55
2022-08-20T15:15:37.676Z,1.50
2022-08-20T15:18:06.132Z,1.42
2022-08-20T15:20:37.497Z,1.70
2022-08-20T15:23:06.013Z,1.77
2022-08-20T15:25:38.086Z,1.63
2022-08-20T15:28:10.501Z,1.65
2022-08-20T15:30:41.337Z,1.73
2022-08-20T15:33:10.662Z,1.60
2022-08-20T15:35:38.866Z,1.67
2022-08-20T15:38:06.985Z,1.45
2022-08-20T15:40:35.257Z,1.42
2022-08-20T15:43:05.215Z,1.45
2022-08-20T15:45:36.013Z,1.75
2022-08-20T15:48:13.625Z,1.55
2022-08-20T15:50:57.659Z,1.63
2022-08-20T15:53:33.902Z,2.03
2022-08-20T15:56:18.518Z,1.75
2022-08-20T15:58:59.746Z,1.98
2022-08-20T16:01:50.601Z,1.80
2022-08-20T16:04:51.487Z,1.70
2022-08-20T16:07:26.921Z,1.85
2022-08-20T16:10:06.413Z,2.00
2022-08-20T16:12:38.427Z,1.90
2022-08-20T16:15:11.793Z,1.88
2022-08-20T16:17:47.598Z,1.90
2022-08-20T16:20:22.746Z,2.20
2022-08-20T16:22:51.072Z,1.88
2022-08-20T16:25:22.802Z,1.88
2022-08-20T16:28:04.878Z,1.85
2022-08-20T16:30:40.451Z,1.75
2022-08-20T16:33:25.470Z,1.60
2022-08-20T16:36:03.657Z,1.80
2022-08-20T16:38:41.513Z,1.88
2022-08-20T16:41:15.623Z,1.30
2022-08-20T16:43:52.746Z,2.20
2022-08-20T16:46:26.216Z,1.85
2022-08-20T16:48:59.407Z,1.60
2022-08-20T16:51:40.737Z,1.70
2022-08-20T16:54:09.963Z,1.63
2022-08-20T16:56:41.874Z,1.65
2022-08-20T16:59:12.910Z,1.35
2022-08-20T17:02:07.374Z,1.73
2022-08-20T17:04:59.637Z,1.50
2022-08-20T17:07:46.173Z,1.58
2022-08-20T17:10:20.386Z,1.63
2022-08-20T17:12:59.421Z,1.50
2022-08-20T17:15:32.027Z,1.52
2022-08-20T17:18:20.987Z,1.90
2022-08-20T17:20:51.076Z,1.80
2022-08-20T17:23:21.838Z,1.45
2022-08-20T17:25:59.992Z,1.77
2022-08-20T17:28:33.171Z,1.98
2022-08-20T17:31:03.431Z,1.90
2022-08-20T17:33:35.632Z,2.00
2022-08-20T17:36:11.427Z,1.90
2022-08-20T17:38:46.988Z,2.00
2022-08-20T17:41:22.733Z,2.00
2022-08-20T17:43:59.861Z,1.90
2022-08-20T17:46:30.659Z,1.70
2022-08-20T17:49:01.161Z,1.80
2022-08-20T17:51:38.725Z,2.10
2022-08-20T17:54:16.146Z,2.33
2022-08-20T17:56:45.242Z,1.75
2022-08-20T17:59:40.915Z,2.15
2022-08-20T18:02:10.653Z,2.38
2022-08-20T18:04:38.910Z,1.75
2022-08-20T18:07:19.507Z,2.20
2022-08-20T18:09:57.151Z,2.42
2022-08-20T18:12:34.943Z,2.28
2022-08-20T18:15:11.971Z,2.30
2022-08-20T18:18:10.884Z,2.30
2022-08-20T18:20:55.799Z,2.58
2022-08-20T18:23:29.811Z,2.40
2022-08-20T18:26:07.589Z,2.13
2022-08-20T18:28:42.154Z,2.53
2022-08-20T18:31:25.644Z,2.95
2022-08-20T18:33:53.827Z,2.30
2022-08-20T18:36:28.676Z,2.08
2022-08-20T18:39:07.242Z,2.58
2022-08-20T18:41:40.055Z,3.47
2022-08-20T18:44:13.409Z,3.65
2022-08-20T18:46:55.373Z,3.10
2022-08-20T18:49:31.164Z,2.72
2022-08-20T18:52:09.953Z,2.97
2022-08-20T18:54:42.592Z,3.33
2022-08-20T18:57:21.921Z,3.05
2022-08-20T18:59:58.619Z,3.67
2022-08-20T19:02:32.554Z,2.72
2022-08-20T19:05:06.053Z,3.10
2022-08-20T19:07:45.693Z,3.47
2022-08-20T19:10:44.135Z,3.72
2022-08-20T19:13:48.333Z,4.60
2022-08-20T19:16:21.425Z,3.60
2022-08-20T19:18:52.747Z,4.10
2022-08-20T19:21:27.355Z,4.30
2022-08-20T19:24:01.612Z,5.10
2022-08-20T19:26:34.628Z,4.57
2022-08-20T19:29:09.416Z,4.07
2022-08-20T19:31:38.906Z,4.27
2022-08-20T19:34:20.272Z,4.30
2022-08-20T19:36:57.813Z,3.80
2022-08-20T19:39:27.794Z,4.07
2022-08-20T19:42:03.689Z,3.80
2022-08-20T19:44:37.889Z,4.37
2022-08-20T19:47:15.646Z,4.67
2022-08-20T19:49:59.738Z,5.27
2022-08-20T19:52:41.479Z,5.30
2022-08-20T19:55:22.653Z,4.83
2022-08-20T19:57:57.099Z,4.30
2022-08-20T20:00:27.521Z,4.27
2022-08-20T20:02:55.988Z,3.80
2022-08-20T20:05:24.337Z,3.90
2022-08-20T20:07:59.158Z,3.90
2022-08-20T20:10:33.042Z,3.50
2022-08-20T20:13:09.827Z,3.73
2022-08-20T20:15:38.885Z,3.80
2022-08-20T20:18:08.170Z,3.20
2022-08-20T20:20:55.903Z,3.50
2022-08-20T20:23:45.537Z,3.60
2022-08-20T20:26:19.925Z,3.80
2022-08-20T20:28:54.083Z,3.40
2022-08-20T20:31:26.357Z,3.57
2022-08-20T20:33:57.583Z,3.23
2022-08-20T20:36:37.323Z,3.30
2022-08-20T20:39:14.319Z,3.77
2022-08-20T20:41:52.833Z,3.50
2022-08-20T20:44:26.501Z,3.50
2022-08-20T20:46:58.723Z,3.53
2022-08-20T20:49:30.115Z,3.53
2022-08-20T20:52:02.591Z,3.47
2022-08-20T20:54:41.301Z,3.90
2022-08-20T20:57:38.161Z,3.97
2022-08-20T21:00:21.485Z,4.50
2022-08-20T21:02:49.824Z,4.50
2022-08-20T21:05:20.913Z,4.03
2022-08-20T21:07:52.217Z,4.10
2022-08-20T21:10:23.020Z,4.13
2022-08-20T21:12:53.136Z,4.30
2022-08-20T21:15:25.554Z,3.60
2022-08-20T21:17:54.733Z,4.00
2022-08-20T21:20:23.556Z,4.33
2022-08-20T21:22:51.973Z,4.20
2022-08-20T21:25:20.494Z,4.30
2022-08-20T21:27:51.202Z,3.80
2022-08-20T21:30:23.126Z,3.97
2022-08-20T21:32:51.923Z,4.47
2022-08-20T21:35:20.566Z,5.20
2022-08-20T21:37:48.807Z,4.87
2022-08-20T21:40:18.196Z,4.97
2022-08-20T21:42:51.221Z,4.33
2022-08-20T21:45:20.340Z,4.97
2022-08-20T21:47:49.854Z,4.60
2022-08-20T21:50:20.080Z,4.83
2022-08-20T21:52:55.329Z,4.73
2022-08-20T21:55:29.346Z,4.60
2022-08-20T21:57:58.540Z,4.90
2022-08-20T22:00:52.353Z,4.83
2022-08-20T22:03:24.379Z,4.57
2022-08-20T22:05:52.998Z,4.87
2022-08-20T22:08:24.166Z,4.60
2022-08-20T22:10:57.700Z,8.73
2022-08-20T22:13:28.271Z,6.00
2022-08-20T22:15:56.435Z,5.33
2022-08-20T22:18:25.992Z,4.67
2022-08-20T22:20:54.246Z,6.67
2022-08-20T22:23:23.139Z,5.93
2022-08-20T22:25:52.064Z,6.10
2022-08-20T22:28:21.563Z,5.30
2022-08-20T22:30:50.326Z,6.40
2022-08-20T22:33:22.713Z,6.77
2022-08-20T22:35:54.842Z,5.80
2022-08-20T22:38:24.331Z,6.97
2022-08-20T22:40:53.972Z,7.80
2022-08-20T22:43:23.415Z,7.07
2022-08-20T22:45:56.975Z,6.57
2022-08-20T22:48:25.267Z,6.47
2022-08-20T22:50:55.102Z,6.17
2022-08-20T22:53:25.923Z,6.83
2022-08-20T22:55:54.770Z,6.63
2022-08-20T22:58:31.311Z,9.20
2022-08-20T23:01:02.277Z,9.07
2022-08-20T23:03:39.291Z,9.57
2022-08-20T23:06:11.372Z,6.67
2022-08-20T23:08:40.202Z,7.23
2022-08-20T23:11:08.561Z,6.20
2022-08-20T23:13:36.829Z,6.73
2022-08-20T23:16:05.906Z,6.53
2022-08-20T23:18:34.248Z,7.00
2022-08-20T23:21:02.566Z,8.73
2022-08-20T23:23:32.086Z,6.67
2022-08-20T23:26:01.420Z,7.23
2022-08-20T23:28:29.634Z,6.43
2022-08-20T23:30:57.755Z,6.23
2022-08-20T23:33:28.308Z,10.50
2022-08-20T23:35:56.822Z,7.63
2022-08-20T23:38:25.009Z,8.27
2022-08-20T23:40:54.481Z,7.83
2022-08-20T23:43:22.669Z,182.70
2022-08-20T23:45:50.912Z,138.37
2022-08-20T23:48:18.972Z,110.40
2022-08-20T23:50:47.126Z,65.93
2022-08-20T23:53:15.238Z,21.00
2022-08-20T23:55:46.246Z,97.03
2022-08-20T23:58:17.919Z,47.70
